createdAt,value
2022-08-22T00:03:09.242Z,62.87
2022-08-22T00:03:54.168Z,62.51
2022-08-22T00:09:08.572Z,62.08
2022-08-22T00:14:24.778Z,62.46
2022-08-22T00:19:42.079Z,62.40
2022-08-22T00:25:03.390Z,61.23
2022-08-22T00:30:15.886Z,60.83
2022-08-22T00:35:34.139Z,60.92
2022-08-22T00:40:58.013Z,61.37
2022-08-22T00:46:32.883Z,61.04
2022-08-22T00:51:54.292Z,61.92
2022-08-22T00:57:02.796Z,62.28
2022-08-22T01:02:32.157Z,62.28
2022-08-22T01:08:04.331Z,62.32
2022-08-22T01:13:36.876Z,61.53
2022-08-22T01:19:07.277Z,61.57
2022-08-22T01:25:08.432Z,61.59
2022-08-22T01:30:32.994Z,62.08
2022-08-22T01:35:44.985Z,62.01
2022-08-22T01:40:54.237Z,61.57
2022-08-22T01:45:57.100Z,61.74
2022-08-22T01:51:13.788Z,62.13
2022-08-22T01:56:20.099Z,62.19
2022-08-22T02:01:33.924Z,62.72
2022-08-22T02:06:42.998Z,63.08
2022-08-22T02:12:21.370Z,62.99
2022-08-22T02:17:48.848Z,62.37
2022-08-22T02:22:59.632Z,62.10
2022-08-22T02:28:18.664Z,62.12
2022-08-22T02:33:31.837Z,61.30
2022-08-22T02:39:00.913Z,61.94
2022-08-22T02:44:03.552Z,61.99
2022-08-22T02:49:17.002Z,62.54
2022-08-22T02:54:28.109Z,62.79
2022-08-22T03:00:31.819Z,62.58
2022-08-22T03:05:38.620Z,62.79
2022-08-22T03:10:47.714Z,62.60
2022-08-22T03:16:03.890Z,62.53
2022-08-22T03:21:32.129Z,63.07
2022-08-22T03:26:56.853Z,62.85
2022-08-22T03:32:20.537Z,62.13
2022-08-22T03:37:40.714Z,62.48
2022-08-22T03:43:02.133Z,62.81
2022-08-22T03:48:42.452Z,62.97
2022-08-22T03:54:00.128Z,62.79
2022-08-22T03:59:11.341Z,62.66
2022-08-22T04:04:22.792Z,62.36
2022-08-22T04:09:31.257Z,62.59
2022-08-22T04:15:10.893Z,62.75
2022-08-22T04:20:44.565Z,62.55
2022-08-22T04:25:55.324Z,63.15
2022-08-22T04:31:06.310Z,63.09
2022-08-22T04:36:20.259Z,62.81
2022-08-22T04:41:31.256Z,62.89
2022-08-22T04:46:39.476Z,62.73
2022-08-22T04:51:47.158Z,62.64
2022-08-22T04:56:52.524Z,62.25
2022-08-22T05:01:59.358Z,62.44
2022-08-22T05:07:19.836Z,62.08
2022-08-22T05:12:38.441Z,61.92
2022-08-22T05:17:44.321Z,61.91
2022-08-22T05:22:52.968Z,61.90
2022-08-22T05:28:12.207Z,61.74
2022-08-22T05:33:24.440Z,61.96
2022-08-22T05:38:34.917Z,62.23
2022-08-22T05:43:42.330Z,61.69
2022-08-22T05:48:57.594Z,61.77
2022-08-22T05:54:14.632Z,61.89
2022-08-22T05:59:17.456Z,61.50
2022-08-22T06:04:35.495Z,61.57
2022-08-22T06:09:47.073Z,61.45
2022-08-22T06:15:02.795Z,61.35
2022-08-22T06:20:21.430Z,61.19
2022-08-22T06:25:30.142Z,61.28
2022-08-22T06:30:35.794Z,61.25
2022-08-22T06:36:06.039Z,61.05
2022-08-22T06:41:11.093Z,61.17
2022-08-22T06:46:16.543Z,61.42
2022-08-22T06:51:20.880Z,61.21
2022-08-22T06:56:33.949Z,61.02
2022-08-22T07:01:45.647Z,61.07
2022-08-22T07:06:51.477Z,61.01
2022-08-22T07:11:59.342Z,61.20
2022-08-22T07:17:07.678Z,60.72
2022-08-22T07:22:15.105Z,60.66
2022-08-22T07:27:45.874Z,59.59
2022-08-22T07:33:25.323Z,61.80
2022-08-22T07:38:42.770Z,61.86
2022-08-22T07:43:49.001Z,60.07
2022-08-22T07:49:09.444Z,59.63
2022-08-22T07:54:28.021Z,58.22
2022-08-22T07:59:35.422Z,64.25
2022-08-22T08:04:40.728Z,62.85
2022-08-22T08:09:54.347Z,62.06
2022-08-22T08:14:58.402Z,60.49
2022-08-22T08:20:14.682Z,59.46
2022-08-22T08:25:25.883Z,60.50
2022-08-22T08:30:48.481Z,63.09
2022-08-22T08:36:03.199Z,62.87
2022-08-22T08:41:41.070Z,61.56
2022-08-22T08:46:59.134Z,60.30
2022-08-22T08:52:21.102Z,62.88
2022-08-22T08:58:10.290Z,62.26
2022-08-22T09:03:32.622Z,60.12
2022-08-22T09:09:01.650Z,61.16
2022-08-22T09:14:32.244Z,61.74
2022-08-22T09:20:15.489Z,61.63
2022-08-22T09:25:42.274Z,62.54
2022-08-22T09:31:16.935Z,59.86
2022-08-22T09:36:38.510Z,58.37
2022-08-22T09:41:44.999Z,56.11
2022-08-22T09:47:25.699Z,56.55
2022-08-22T09:52:47.110Z,57.78
2022-08-22T09:58:01.829Z,59.13
2022-08-22T10:03:14.641Z,60.59
2022-08-22T10:08:36.999Z,61.54
2022-08-22T10:14:00.516Z,63.05
2022-08-22T10:19:18.082Z,58.45
2022-08-22T10:24:34.148Z,60.05
2022-08-22T10:30:10.854Z,61.11
2022-08-22T10:35:33.815Z,61.11
2022-08-22T10:41:02.629Z,61.26
2022-08-22T10:46:19.101Z,61.50
2022-08-22T10:51:44.666Z,61.59
2022-08-22T10:57:00.627Z,61.66
2022-08-22T11:02:09.866Z,61.52
2022-08-22T11:07:29.885Z,61.18
2022-08-22T11:12:50.614Z,61.32
2022-08-22T11:18:24.353Z,61.04
2022-08-22T11:23:37.560Z,60.56
2022-08-22T11:29:13.279Z,57.87
2022-08-22T11:34:44.911Z,53.16
2022-08-22T11:40:20.370Z,51.22
2022-08-22T11:45:35.861Z,49.82
2022-08-22T11:50:55.793Z,49.09
2022-08-22T11:56:22.679Z,48.84
2022-08-22T12:01:42.203Z,49.50
2022-08-22T12:07:07.300Z,49.50
2022-08-22T12:12:38.567Z,47.65
2022-08-22T12:18:01.345Z,47.78
2022-08-22T12:23:16.873Z,47.20
2022-08-22T12:28:43.836Z,47.36
2022-08-22T12:33:58.687Z,47.40
2022-08-22T12:39:41.075Z,47.54
2022-08-22T12:45:18.158Z,47.53
2022-08-22T12:50:31.360Z,48.06
2022-08-22T12:55:55.605Z,49.13
2022-08-22T13:01:05.010Z,49.75
2022-08-22T13:06:34.033Z,50.39
2022-08-22T13:11:43.647Z,50.72
2022-08-22T13:16:51.333Z,49.19
2022-08-22T13:22:01.510Z,47.09
2022-08-22T13:27:15.479Z,44.73
2022-08-22T13:32:28.087Z,44.25
2022-08-22T13:37:43.407Z,43.35
2022-08-22T13:42:50.253Z,42.17
2022-08-22T13:48:03.699Z,40.76
2022-08-22T13:53:28.445Z,37.67
2022-08-22T13:58:52.878Z,35.06
2022-08-22T14:04:28.813Z,35.29
2022-08-22T14:09:41.057Z,36.36
2022-08-22T14:14:49.246Z,37.46
2022-08-22T14:20:03.035Z,39.08
2022-08-22T14:25:21.311Z,40.85
2022-08-22T14:30:39.355Z,42.69
2022-08-22T14:35:52.648Z,44.46
2022-08-22T14:41:06.316Z,46.14
2022-08-22T14:46:14.716Z,47.42
2022-08-22T14:51:23.481Z,48.95
2022-08-22T14:56:29.842Z,49.92
2022-08-22T15:01:37.336Z,50.87
2022-08-22T15:06:52.715Z,51.53
2022-08-22T15:11:56.032Z,52.86
2022-08-22T15:17:02.053Z,53.60
2022-08-22T15:22:15.158Z,52.88
2022-08-22T15:27:20.509Z,50.77
2022-08-22T15:32:29.821Z,48.10
2022-08-22T15:37:52.207Z,45.85
2022-08-22T15:42:58.326Z,45.15
2022-08-22T15:48:05.561Z,46.20
2022-08-22T15:53:18.902Z,45.29
2022-08-22T15:58:24.921Z,44.80
2022-08-22T16:03:31.940Z,46.23
2022-08-22T16:08:46.961Z,47.58
2022-08-22T16:14:21.760Z,49.05
2022-08-22T16:19:27.823Z,50.46
2022-08-22T16:24:33.863Z,51.69
2022-08-22T16:29:41.878Z,52.82
2022-08-22T16:34:46.056Z,53.65
2022-08-22T16:39:58.632Z,54.80
2022-08-22T16:45:13.443Z,55.53
2022-08-22T16:50:16.577Z,56.35
2022-08-22T16:55:28.617Z,57.64
2022-08-22T17:00:34.313Z,58.51
2022-08-22T17:06:32.591Z,59.12
2022-08-22T17:12:03.308Z,59.72
2022-08-22T17:17:40.789Z,60.23
2022-08-22T17:23:03.231Z,60.80
2022-08-22T17:28:24.312Z,61.01
2022-08-22T17:33:52.898Z,65.48
2022-08-22T17:39:29.123Z,66.40
2022-08-22T17:44:43.403Z,56.98
2022-08-22T17:49:55.139Z,56.45
2022-08-22T17:55:05.589Z,58.39
2022-08-22T18:00:33.797Z,59.68
2022-08-22T18:05:47.000Z,63.92
2022-08-22T18:11:02.079Z,58.90
2022-08-22T18:16:08.310Z,58.60
2022-08-22T18:21:27.088Z,60.65
2022-08-22T18:26:42.073Z,67.00
2022-08-22T18:32:00.624Z,60.51
2022-08-22T18:37:24.639Z,57.96
2022-08-22T18:42:47.797Z,58.83
2022-08-22T18:47:57.224Z,60.17
2022-08-22T18:53:00.809Z,65.79
2022-08-22T18:58:22.267Z,66.44
2022-08-22T19:03:39.929Z,63.55
2022-08-22T19:08:59.670Z,57.70
2022-08-22T19:14:35.820Z,56.51
2022-08-22T19:20:35.102Z,58.88
2022-08-22T19:26:16.387Z,68.49
2022-08-22T19:31:41.952Z,64.36
2022-08-22T19:36:46.335Z,61.62
2022-08-22T19:41:54.382Z,56.96
2022-08-22T19:47:09.071Z,56.29
2022-08-22T19:52:30.356Z,59.48
2022-08-22T19:57:52.819Z,67.43
2022-08-22T20:03:04.231Z,66.23
2022-08-22T20:08:19.082Z,63.23
2022-08-22T20:13:25.507Z,61.72
2022-08-22T20:19:05.063Z,60.82
2022-08-22T20:24:15.566Z,60.71
2022-08-22T20:29:20.009Z,60.38
2022-08-22T20:34:30.433Z,59.94
2022-08-22T20:39:50.610Z,56.85
2022-08-22T20:45:12.158Z,56.79
2022-08-22T20:50:20.445Z,60.95
2022-08-22T20:55:27.260Z,67.55
2022-08-22T21:00:42.429Z,65.29
2022-08-22T21:05:46.399Z,63.74
2022-08-22T21:11:24.653Z,59.62
2022-08-22T21:16:31.628Z,59.59
2022-08-22T21:21:35.118Z,65.66
2022-08-22T21:26:52.082Z,66.15
2022-08-22T21:31:59.318Z,64.22
2022-08-22T21:37:14.333Z,63.51
2022-08-22T21:42:27.445Z,62.95
2022-08-22T21:47:37.103Z,60.85
2022-08-22T21:52:56.270Z,58.03
2022-08-22T21:58:05.331Z,60.76
2022-08-22T22:03:08.243Z,67.19
2022-08-22T22:08:11.725Z,67.25
2022-08-22T22:13:15.721Z,64.72
2022-08-22T22:18:25.063Z,63.24
2022-08-22T22:23:28.632Z,62.52
2022-08-22T22:28:36.617Z,61.67
2022-08-22T22:33:41.724Z,60.99
2022-08-22T22:38:45.494Z,60.67
2022-08-22T22:43:48.426Z,60.71
2022-08-22T22:48:51.098Z,60.70
2022-08-22T22:53:56.095Z,61.06
2022-08-22T22:59:12.810Z,61.06
2022-08-22T23:04:16.565Z,59.21
2022-08-22T23:09:19.261Z,59.96
2022-08-22T23:14:22.514Z,66.18
2022-08-22T23:19:26.799Z,67.45
2022-08-22T23:24:31.245Z,66.26
2022-08-22T23:29:34.737Z,66.03
2022-08-22T23:34:46.295Z,64.53
2022-08-22T23:39:49.989Z,65.36
2022-08-22T23:44:52.758Z,64.97
2022-08-22T23:49:55.499Z,64.84
2022-08-22T23:54:58.185Z,64.70
